sensor_id;sensor_type;location;lat;lon;timestamp;temperature;humidity
11894;DHT22;6006;49.696;8.662;2024-03-29T00:01:56;5.80;99.90
11894;DHT22;6006;49.696;8.662;2024-03-29T00:04:22;5.70;99.90
11894;DHT22;6006;49.696;8.662;2024-03-29T00:06:47;5.80;99.90
11894;DHT22;6006;49.696;8.662;2024-03-29T00:09:13;5.90;99.90
11894;DHT22;6006;49.696;8.662;2024-03-29T00:11:39;5.90;99.90
11894;DHT22;6006;49.696;8.662;2024-03-29T00:14:07;5.90;99.90
11894;DHT22;6006;49.696;8.662;2024-03-29T00:16:33;5.90;99.90
11894;DHT22;6006;49.696;8.662;2024-03-29T00:18:58;6.00;99.90
11894;DHT22;6006;49.696;8.662;2024-03-29T00:21:25;6.20;99.90
11894;DHT22;6006;49.696;8.662;2024-03-29T00:23:50;6.50;99.90
11894;DHT22;6006;49.696;8.662;2024-03-29T00:26:16;6.80;99.90
11894;DHT22;6006;49.696;8.662;2024-03-29T00:28:42;7.20;99.90
11894;DHT22;6006;49.696;8.662;2024-03-29T00:31:10;7.50;99.90
11894;DHT22;6006;49.696;8.662;2024-03-29T00:33:36;7.90;99.90
11894;DHT22;6006;49.696;8.662;2024-03-29T00:36:02;8.10;99.90
11894;DHT22;6006;49.696;8.662;2024-03-29T00:38:28;7.90;99.90
11894;DHT22;6006;49.696;8.662;2024-03-29T00:40:54;8.10;99.90
11894;DHT22;6006;49.696;8.662;2024-03-29T00:43:20;8.20;99.90
11894;DHT22;6006;49.696;8.662;2024-03-29T00:45:45;8.30;99.90
11894;DHT22;6006;49.696;8.662;2024-03-29T00:48:13;8.30;99.90
11894;DHT22;6006;49.696;8.662;2024-03-29T00:50:39;8.30;99.90
11894;DHT22;6006;49.696;8.662;2024-03-29T00:53:05;8.50;99.90
11894;DHT22;6006;49.696;8.662;2024-03-29T00:55:31;8.80;99.90
11894;DHT22;6006;49.696;8.662;2024-03-29T00:57:56;8.80;99.90
11894;DHT22;6006;49.696;8.662;2024-03-29T01:00:23;9.00;99.90
11894;DHT22;6006;49.696;8.662;2024-03-29T01:02:49;9.10;99.90
11894;DHT22;6006;49.696;8.662;2024-03-29T01:05:16;9.30;99.90
11894;DHT22;6006;49.696;8.662;2024-03-29T01:07:42;9.30;99.90
11894;DHT22;6006;49.696;8.662;2024-03-29T01:10:09;9.10;99.90
11894;DHT22;6006;49.696;8.662;2024-03-29T01:12:35;9.10;99.90
11894;DHT22;6006;49.696;8.662;2024-03-29T01:15:01;9.50;99.90
11894;DHT22;6006;49.696;8.662;2024-03-29T01:17:28;9.40;99.90
11894;DHT22;6006;49.696;8.662;2024-03-29T01:19:54;9.40;99.90
11894;DHT22;6006;49.696;8.662;2024-03-29T01:22:21;9.60;99.90
11894;DHT22;6006;49.696;8.662;2024-03-29T01:24:47;9.80;99.90
11894;DHT22;6006;49.696;8.662;2024-03-29T01:27:13;9.70;99.90
11894;DHT22;6006;49.696;8.662;2024-03-29T01:29:39;9.70;99.90
11894;DHT22;6006;49.696;8.662;2024-03-29T01:32:05;9.70;99.90
11894;DHT22;6006;49.696;8.662;2024-03-29T01:34:32;9.60;99.90
11894;DHT22;6006;49.696;8.662;2024-03-29T01:36:57;9.60;99.90
11894;DHT22;6006;49.696;8.662;2024-03-29T01:39:25;9.60;99.90
11894;DHT22;6006;49.696;8.662;2024-03-29T01:41:51;9.80;99.90
11894;DHT22;6006;49.696;8.662;2024-03-29T01:44:17;9.90;99.90
11894;DHT22;6006;49.696;8.662;2024-03-29T01:46:44;10.10;99.90
11894;DHT22;6006;49.696;8.662;2024-03-29T01:49:13;10.10;99.90
11894;DHT22;6006;49.696;8.662;2024-03-29T01:51:41;10.00;99.90
11894;DHT22;6006;49.696;8.662;2024-03-29T01:54:08;9.90;99.90
11894;DHT22;6006;49.696;8.662;2024-03-29T01:56:37;9.90;99.90
11894;DHT22;6006;49.696;8.662;2024-03-29T01:59:10;10.10;99.90
11894;DHT22;6006;49.696;8.662;2024-03-29T02:01:41;10.20;99.90
11894;DHT22;6006;49.696;8.662;2024-03-29T02:04:08;10.10;99.90
11894;DHT22;6006;49.696;8.662;2024-03-29T02:06:42;10.40;99.90
11894;DHT22;6006;49.696;8.662;2024-03-29T02:09:09;10.40;99.90
11894;DHT22;6006;49.696;8.662;2024-03-29T02:11:36;10.30;99.90
11894;DHT22;6006;49.696;8.662;2024-03-29T02:14:03;10.30;99.90
11894;DHT22;6006;49.696;8.662;2024-03-29T02:16:31;10.50;99.90
11894;DHT22;6006;49.696;8.662;2024-03-29T02:18:58;10.50;99.90
11894;DHT22;6006;49.696;8.662;2024-03-29T02:21:25;10.40;99.90
11894;DHT22;6006;49.696;8.662;2024-03-29T02:24:00;10.40;99.90
11894;DHT22;6006;49.696;8.662;2024-03-29T02:26:27;10.30;99.90
11894;DHT22;6006;49.696;8.662;2024-03-29T02:28:58;10.30;99.90
11894;DHT22;6006;49.696;8.662;2024-03-29T02:31:25;10.30;99.90
11894;DHT22;6006;49.696;8.662;2024-03-29T02:33:52;10.30;99.90
11894;DHT22;6006;49.696;8.662;2024-03-29T02:36:19;10.30;99.90
11894;DHT22;6006;49.696;8.662;2024-03-29T02:38:46;10.40;99.90
11894;DHT22;6006;49.696;8.662;2024-03-29T02:41:14;10.30;99.90
11894;DHT22;6006;49.696;8.662;2024-03-29T02:43:41;10.40;99.90
11894;DHT22;6006;49.696;8.662;2024-03-29T02:46:08;10.20;99.90
11894;DHT22;6006;49.696;8.662;2024-03-29T02:48:35;10.20;99.90
11894;DHT22;6006;49.696;8.662;2024-03-29T02:51:02;10.00;99.90
11894;DHT22;6006;49.696;8.662;2024-03-29T02:53:28;9.90;99.90
11894;DHT22;6006;49.696;8.662;2024-03-29T02:55:55;9.90;99.90
11894;DHT22;6006;49.696;8.662;2024-03-29T02:58:22;9.90;99.90
11894;DHT22;6006;49.696;8.662;2024-03-29T03:00:49;9.90;99.90
11894;DHT22;6006;49.696;8.662;2024-03-29T03:03:16;10.10;99.90
11894;DHT22;6006;49.696;8.662;2024-03-29T03:05:43;10.40;99.90
11894;DHT22;6006;49.696;8.662;2024-03-29T03:08:08;10.30;99.90
11894;DHT22;6006;49.696;8.662;2024-03-29T03:10:53;10.30;99.90
11894;DHT22;6006;49.696;8.662;2024-03-29T03:13:26;10.40;99.90
11894;DHT22;6006;49.696;8.662;2024-03-29T03:15:53;10.60;99.90
11894;DHT22;6006;49.696;8.662;2024-03-29T03:18:20;10.60;99.90
11894;DHT22;6006;49.696;8.662;2024-03-29T03:20:50;10.50;99.90
11894;DHT22;6006;49.696;8.662;2024-03-29T03:23:17;10.50;99.90
11894;DHT22;6006;49.696;8.662;2024-03-29T03:25:44;10.70;99.90
11894;DHT22;6006;49.696;8.662;2024-03-29T03:28:10;10.70;99.90
11894;DHT22;6006;49.696;8.662;2024-03-29T03:30:39;10.70;99.90
11894;DHT22;6006;49.696;8.662;2024-03-29T03:33:05;10.60;99.90
11894;DHT22;6006;49.696;8.662;2024-03-29T03:35:32;10.70;99.90
11894;DHT22;6006;49.696;8.662;2024-03-29T03:37:58;10.90;99.90
11894;DHT22;6006;49.696;8.662;2024-03-29T03:40:25;11.00;99.90
11894;DHT22;6006;49.696;8.662;2024-03-29T03:42:52;11.10;99.90
11894;DHT22;6006;49.696;8.662;2024-03-29T03:45:17;11.00;99.90
11894;DHT22;6006;49.696;8.662;2024-03-29T03:47:46;10.90;99.90
11894;DHT22;6006;49.696;8.662;2024-03-29T03:50:12;10.50;99.90
11894;DHT22;6006;49.696;8.662;2024-03-29T03:52:38;10.40;99.90
11894;DHT22;6006;49.696;8.662;2024-03-29T03:55:05;10.10;99.90
11894;DHT22;6006;49.696;8.662;2024-03-29T03:57:32;10.30;99.90
11894;DHT22;6006;49.696;8.662;2024-03-29T03:59:59;10.50;99.90
11894;DHT22;6006;49.696;8.662;2024-03-29T04:02:26;10.60;99.90
11894;DHT22;6006;49.696;8.662;2024-03-29T04:04:53;10.80;99.90
11894;DHT22;6006;49.696;8.662;2024-03-29T04:07:21;10.90;99.90
11894;DHT22;6006;49.696;8.662;2024-03-29T04:09:50;10.80;99.90
11894;DHT22;6006;49.696;8.662;2024-03-29T04:12:17;11.10;99.90
11894;DHT22;6006;49.696;8.662;2024-03-29T04:14:43;11.40;99.90
11894;DHT22;6006;49.696;8.662;2024-03-29T04:17:10;11.70;99.90
11894;DHT22;6006;49.696;8.662;2024-03-29T04:19:36;11.70;99.90
11894;DHT22;6006;49.696;8.662;2024-03-29T04:22:04;11.60;99.90
11894;DHT22;6006;49.696;8.662;2024-03-29T04:24:30;11.20;99.90
11894;DHT22;6006;49.696;8.662;2024-03-29T04:26:57;11.00;99.90
11894;DHT22;6006;49.696;8.662;2024-03-29T04:29:23;10.80;99.90
11894;DHT22;6006;49.696;8.662;2024-03-29T04:31:50;10.50;99.90
11894;DHT22;6006;49.696;8.662;2024-03-29T04:34:16;10.20;99.90
11894;DHT22;6006;49.696;8.662;2024-03-29T04:36:43;10.10;99.90
11894;DHT22;6006;49.696;8.662;2024-03-29T04:39:12;9.90;99.90
11894;DHT22;6006;49.696;8.662;2024-03-29T04:41:39;9.90;99.90
11894;DHT22;6006;49.696;8.662;2024-03-29T04:44:05;9.80;99.90
11894;DHT22;6006;49.696;8.662;2024-03-29T04:46:33;9.70;99.90
11894;DHT22;6006;49.696;8.662;2024-03-29T04:49:00;9.80;99.90
11894;DHT22;6006;49.696;8.662;2024-03-29T04:51:27;9.80;99.90
11894;DHT22;6006;49.696;8.662;2024-03-29T04:53:54;9.90;99.90
11894;DHT22;6006;49.696;8.662;2024-03-29T04:56:22;10.00;99.90
11894;DHT22;6006;49.696;8.662;2024-03-29T04:58:49;10.00;99.90
11894;DHT22;6006;49.696;8.662;2024-03-29T05:01:16;10.00;99.90
11894;DHT22;6006;49.696;8.662;2024-03-29T05:03:43;10.00;99.90
11894;DHT22;6006;49.696;8.662;2024-03-29T05:06:10;10.00;99.90
11894;DHT22;6006;49.696;8.662;2024-03-29T05:08:37;10.00;99.90
11894;DHT22;6006;49.696;8.662;2024-03-29T05:11:04;10.00;99.90
11894;DHT22;6006;49.696;8.662;2024-03-29T05:13:32;9.90;99.90
11894;DHT22;6006;49.696;8.662;2024-03-29T05:16:00;9.80;99.90
11894;DHT22;6006;49.696;8.662;2024-03-29T05:18:27;9.70;99.90
11894;DHT22;6006;49.696;8.662;2024-03-29T05:20:53;9.70;99.90
11894;DHT22;6006;49.696;8.662;2024-03-29T05:23:21;9.70;99.90
11894;DHT22;6006;49.696;8.662;2024-03-29T05:25:47;9.70;99.90
11894;DHT22;6006;49.696;8.662;2024-03-29T05:28:15;9.70;99.90
11894;DHT22;6006;49.696;8.662;2024-03-29T05:30:43;9.60;99.90
11894;DHT22;6006;49.696;8.662;2024-03-29T05:33:10;9.60;99.90
11894;DHT22;6006;49.696;8.662;2024-03-29T05:35:37;9.50;99.90
11894;DHT22;6006;49.696;8.662;2024-03-29T05:38:04;9.50;1.00
11894;DHT22;6006;49.696;8.662;2024-03-29T05:40:31;9.40;1.00
11894;DHT22;6006;49.696;8.662;2024-03-29T05:42:56;9.40;1.00
11894;DHT22;6006;49.696;8.662;2024-03-29T05:45:25;9.40;1.00
11894;DHT22;6006;49.696;8.662;2024-03-29T05:47:55;9.30;1.00
11894;DHT22;6006;49.696;8.662;2024-03-29T05:50:23;9.30;1.00
11894;DHT22;6006;49.696;8.662;2024-03-29T05:52:50;9.30;1.00
11894;DHT22;6006;49.696;8.662;2024-03-29T05:55:18;9.30;1.00
11894;DHT22;6006;49.696;8.662;2024-03-29T05:57:45;9.30;1.00
11894;DHT22;6006;49.696;8.662;2024-03-29T06:00:14;9.30;1.00
11894;DHT22;6006;49.696;8.662;2024-03-29T06:02:41;9.30;1.00
11894;DHT22;6006;49.696;8.662;2024-03-29T06:05:11;9.30;1.00
11894;DHT22;6006;49.696;8.662;2024-03-29T06:07:38;9.30;1.00
11894;DHT22;6006;49.696;8.662;2024-03-29T06:10:06;9.30;1.00
11894;DHT22;6006;49.696;8.662;2024-03-29T06:12:34;9.40;1.00
11894;DHT22;6006;49.696;8.662;2024-03-29T06:15:01;9.40;1.00
11894;DHT22;6006;49.696;8.662;2024-03-29T06:17:46;9.30;1.00
11894;DHT22;6006;49.696;8.662;2024-03-29T06:20:14;9.30;11.70
11894;DHT22;6006;49.696;8.662;2024-03-29T06:22:41;9.40;33.20
11894;DHT22;6006;49.696;8.662;2024-03-29T06:25:09;9.40;99.90
11894;DHT22;6006;49.696;8.662;2024-03-29T06:27:37;9.40;99.90
11894;DHT22;6006;49.696;8.662;2024-03-29T06:30:05;9.40;99.90
11894;DHT22;6006;49.696;8.662;2024-03-29T06:32:32;9.40;1.00
11894;DHT22;6006;49.696;8.662;2024-03-29T06:34:59;9.40;1.00
11894;DHT22;6006;49.696;8.662;2024-03-29T06:37:28;9.40;1.00
11894;DHT22;6006;49.696;8.662;2024-03-29T06:39:55;9.40;1.00
11894;DHT22;6006;49.696;8.662;2024-03-29T06:42:22;9.40;1.00
11894;DHT22;6006;49.696;8.662;2024-03-29T06:44:49;9.40;99.90
11894;DHT22;6006;49.696;8.662;2024-03-29T06:47:17;9.50;16.80
11894;DHT22;6006;49.696;8.662;2024-03-29T06:49:44;9.40;1.00
11894;DHT22;6006;49.696;8.662;2024-03-29T06:52:12;9.30;99.90
11894;DHT22;6006;49.696;8.662;2024-03-29T06:54:40;9.40;1.00
11894;DHT22;6006;49.696;8.662;2024-03-29T06:57:07;9.40;99.90
11894;DHT22;6006;49.696;8.662;2024-03-29T06:59:35;9.40;1.00
11894;DHT22;6006;49.696;8.662;2024-03-29T07:02:02;9.40;1.00
11894;DHT22;6006;49.696;8.662;2024-03-29T07:04:29;9.50;99.90
11894;DHT22;6006;49.696;8.662;2024-03-29T07:06:58;9.50;1.00
11894;DHT22;6006;49.696;8.662;2024-03-29T07:09:26;9.50;99.90
11894;DHT22;6006;49.696;8.662;2024-03-29T07:11:55;9.60;1.00
11894;DHT22;6006;49.696;8.662;2024-03-29T07:14:24;9.60;1.00
11894;DHT22;6006;49.696;8.662;2024-03-29T07:16:52;9.70;1.00
11894;DHT22;6006;49.696;8.662;2024-03-29T07:19:18;9.80;1.00
11894;DHT22;6006;49.696;8.662;2024-03-29T07:21:46;9.80;99.90
11894;DHT22;6006;49.696;8.662;2024-03-29T07:24:14;9.90;99.90
11894;DHT22;6006;49.696;8.662;2024-03-29T07:26:40;9.90;99.90
11894;DHT22;6006;49.696;8.662;2024-03-29T07:29:09;10.00;99.90
11894;DHT22;6006;49.696;8.662;2024-03-29T07:31:36;10.00;99.90
11894;DHT22;6006;49.696;8.662;2024-03-29T07:34:03;10.10;99.90
11894;DHT22;6006;49.696;8.662;2024-03-29T07:36:29;10.10;49.10
11894;DHT22;6006;49.696;8.662;2024-03-29T07:39:01;10.10;99.90
11894;DHT22;6006;49.696;8.662;2024-03-29T07:41:29;10.20;99.90
11894;DHT22;6006;49.696;8.662;2024-03-29T07:43:57;10.30;99.90
11894;DHT22;6006;49.696;8.662;2024-03-29T07:46:31;10.20;99.90
11894;DHT22;6006;49.696;8.662;2024-03-29T07:48:58;10.40;99.90
11894;DHT22;6006;49.696;8.662;2024-03-29T07:51:25;10.50;36.20
11894;DHT22;6006;49.696;8.662;2024-03-29T07:53:52;10.70;1.00
11894;DHT22;6006;49.696;8.662;2024-03-29T07:56:20;10.70;1.00
11894;DHT22;6006;49.696;8.662;2024-03-29T07:58:50;10.80;1.00
11894;DHT22;6006;49.696;8.662;2024-03-29T08:01:19;11.00;1.00
11894;DHT22;6006;49.696;8.662;2024-03-29T08:03:49;11.10;1.00
11894;DHT22;6006;49.696;8.662;2024-03-29T08:06:16;11.30;1.00
11894;DHT22;6006;49.696;8.662;2024-03-29T08:08:45;11.30;99.90
11894;DHT22;6006;49.696;8.662;2024-03-29T08:11:12;11.30;99.90
11894;DHT22;6006;49.696;8.662;2024-03-29T08:13:39;11.40;99.90
11894;DHT22;6006;49.696;8.662;2024-03-29T08:16:07;11.30;99.90
11894;DHT22;6006;49.696;8.662;2024-03-29T08:18:34;11.40;99.90
11894;DHT22;6006;49.696;8.662;2024-03-29T08:21:03;11.40;99.90
11894;DHT22;6006;49.696;8.662;2024-03-29T08:23:36;11.30;99.90
11894;DHT22;6006;49.696;8.662;2024-03-29T08:26:04;11.30;99.90
11894;DHT22;6006;49.696;8.662;2024-03-29T08:28:31;11.50;99.90
11894;DHT22;6006;49.696;8.662;2024-03-29T08:30:58;11.40;99.90
11894;DHT22;6006;49.696;8.662;2024-03-29T08:33:26;11.50;99.90
11894;DHT22;6006;49.696;8.662;2024-03-29T08:35:53;11.40;99.90
11894;DHT22;6006;49.696;8.662;2024-03-29T08:38:22;11.60;99.90
11894;DHT22;6006;49.696;8.662;2024-03-29T08:40:50;11.60;99.90
11894;DHT22;6006;49.696;8.662;2024-03-29T08:43:16;11.40;99.90
11894;DHT22;6006;49.696;8.662;2024-03-29T08:45:44;11.40;99.90
11894;DHT22;6006;49.696;8.662;2024-03-29T08:48:11;11.40;99.90
11894;DHT22;6006;49.696;8.662;2024-03-29T08:50:38;11.40;99.90
11894;DHT22;6006;49.696;8.662;2024-03-29T08:53:05;11.40;99.90
11894;DHT22;6006;49.696;8.662;2024-03-29T08:55:34;11.40;99.90
11894;DHT22;6006;49.696;8.662;2024-03-29T08:58:02;11.50;99.90
11894;DHT22;6006;49.696;8.662;2024-03-29T09:00:29;11.50;99.90
11894;DHT22;6006;49.696;8.662;2024-03-29T09:02:57;11.50;99.90
11894;DHT22;6006;49.696;8.662;2024-03-29T09:05:24;11.50;99.90
11894;DHT22;6006;49.696;8.662;2024-03-29T09:07:52;11.30;99.90
11894;DHT22;6006;49.696;8.662;2024-03-29T09:10:19;11.30;99.90
11894;DHT22;6006;49.696;8.662;2024-03-29T09:12:47;11.10;99.90
11894;DHT22;6006;49.696;8.662;2024-03-29T09:15:14;11.10;99.90
11894;DHT22;6006;49.696;8.662;2024-03-29T09:17:42;11.00;99.90
11894;DHT22;6006;49.696;8.662;2024-03-29T09:20:10;11.10;99.90
11894;DHT22;6006;49.696;8.662;2024-03-29T09:22:37;11.10;99.90
11894;DHT22;6006;49.696;8.662;2024-03-29T09:25:05;11.10;99.90
11894;DHT22;6006;49.696;8.662;2024-03-29T09:27:35;11.10;99.90
11894;DHT22;6006;49.696;8.662;2024-03-29T09:30:04;11.00;99.90
11894;DHT22;6006;49.696;8.662;2024-03-29T09:32:35;10.90;99.90
11894;DHT22;6006;49.696;8.662;2024-03-29T09:35:02;10.80;99.90
11894;DHT22;6006;49.696;8.662;2024-03-29T09:37:29;10.80;99.90
11894;DHT22;6006;49.696;8.662;2024-03-29T09:40:02;10.70;99.90
11894;DHT22;6006;49.696;8.662;2024-03-29T09:42:32;10.70;99.90
11894;DHT22;6006;49.696;8.662;2024-03-29T09:45:07;10.60;1.00
11894;DHT22;6006;49.696;8.662;2024-03-29T09:47:41;10.60;1.00
11894;DHT22;6006;49.696;8.662;2024-03-29T09:50:09;10.50;1.00
11894;DHT22;6006;49.696;8.662;2024-03-29T09:52:39;10.50;1.00
11894;DHT22;6006;49.696;8.662;2024-03-29T09:55:06;10.40;1.00
11894;DHT22;6006;49.696;8.662;2024-03-29T09:57:33;10.30;1.00
11894;DHT22;6006;49.696;8.662;2024-03-29T10:00:02;10.20;68.50
11894;DHT22;6006;49.696;8.662;2024-03-29T10:02:31;10.20;99.90
11894;DHT22;6006;49.696;8.662;2024-03-29T10:05:00;10.10;1.00
11894;DHT22;6006;49.696;8.662;2024-03-29T10:07:29;10.10;52.10
11894;DHT22;6006;49.696;8.662;2024-03-29T10:09:57;10.10;99.90
11894;DHT22;6006;49.696;8.662;2024-03-29T10:12:28;10.10;1.00
11894;DHT22;6006;49.696;8.662;2024-03-29T10:14:56;10.00;1.00
11894;DHT22;6006;49.696;8.662;2024-03-29T10:17:32;10.00;99.90
11894;DHT22;6006;49.696;8.662;2024-03-29T10:20:00;10.00;1.00
11894;DHT22;6006;49.696;8.662;2024-03-29T10:22:27;9.90;1.00
11894;DHT22;6006;49.696;8.662;2024-03-29T10:24:54;10.00;99.90
11894;DHT22;6006;49.696;8.662;2024-03-29T10:27:20;10.10;1.00
11894;DHT22;6006;49.696;8.662;2024-03-29T10:29:47;10.10;99.90
11894;DHT22;6006;49.696;8.662;2024-03-29T10:32:18;10.20;1.00
11894;DHT22;6006;49.696;8.662;2024-03-29T10:34:48;10.30;99.90
11894;DHT22;6006;49.696;8.662;2024-03-29T10:37:15;10.40;1.00
11894;DHT22;6006;49.696;8.662;2024-03-29T10:39:44;10.60;1.00
11894;DHT22;6006;49.696;8.662;2024-03-29T10:42:11;10.60;1.00
11894;DHT22;6006;49.696;8.662;2024-03-29T10:44:39;10.70;48.10
11894;DHT22;6006;49.696;8.662;2024-03-29T10:47:06;10.90;99.90
11894;DHT22;6006;49.696;8.662;2024-03-29T10:49:35;11.20;99.90
11894;DHT22;6006;49.696;8.662;2024-03-29T10:52:04;11.80;99.90
11894;DHT22;6006;49.696;8.662;2024-03-29T10:54:34;12.00;1.00
11894;DHT22;6006;49.696;8.662;2024-03-29T10:57:05;12.50;99.90
11894;DHT22;6006;49.696;8.662;2024-03-29T10:59:44;12.80;1.00
11894;DHT22;6006;49.696;8.662;2024-03-29T11:02:22;13.30;1.00
11894;DHT22;6006;49.696;8.662;2024-03-29T11:04:52;13.60;99.90
11894;DHT22;6006;49.696;8.662;2024-03-29T11:07:21;13.70;99.90
11894;DHT22;6006;49.696;8.662;2024-03-29T11:09:52;13.60;99.90
11894;DHT22;6006;49.696;8.662;2024-03-29T11:12:23;13.60;99.90
11894;DHT22;6006;49.696;8.662;2024-03-29T11:14:59;13.50;99.90
11894;DHT22;6006;49.696;8.662;2024-03-29T11:17:29;13.60;99.90
11894;DHT22;6006;49.696;8.662;2024-03-29T11:19:57;13.40;99.90
11894;DHT22;6006;49.696;8.662;2024-03-29T11:22:26;13.40;99.90
11894;DHT22;6006;49.696;8.662;2024-03-29T11:24:54;13.40;99.90
11894;DHT22;6006;49.696;8.662;2024-03-29T11:27:22;13.40;99.90
11894;DHT22;6006;49.696;8.662;2024-03-29T11:29:49;13.30;99.90
11894;DHT22;6006;49.696;8.662;2024-03-29T11:32:33;13.40;99.90
11894;DHT22;6006;49.696;8.662;2024-03-29T11:35:00;13.20;1.00
11894;DHT22;6006;49.696;8.662;2024-03-29T11:37:31;13.30;99.90
11894;DHT22;6006;49.696;8.662;2024-03-29T11:39:59;13.10;1.00
11894;DHT22;6006;49.696;8.662;2024-03-29T11:42:37;13.00;1.00
11894;DHT22;6006;49.696;8.662;2024-03-29T11:45:04;12.90;1.00
11894;DHT22;6006;49.696;8.662;2024-03-29T11:47:33;13.00;1.00
11894;DHT22;6006;49.696;8.662;2024-03-29T11:50:01;13.20;1.00
11894;DHT22;6006;49.696;8.662;2024-03-29T11:52:28;13.40;1.00
11894;DHT22;6006;49.696;8.662;2024-03-29T11:54:56;13.10;1.00
11894;DHT22;6006;49.696;8.662;2024-03-29T11:57:24;12.90;1.00
11894;DHT22;6006;49.696;8.662;2024-03-29T11:59:51;12.90;1.00
11894;DHT22;6006;49.696;8.662;2024-03-29T12:02:19;12.70;39.90
11894;DHT22;6006;49.696;8.662;2024-03-29T12:04:49;12.80;1.00
11894;DHT22;6006;49.696;8.662;2024-03-29T12:07:17;12.70;3.00
11894;DHT22;6006;49.696;8.662;2024-03-29T12:09:45;12.70;1.00
11894;DHT22;6006;49.696;8.662;2024-03-29T12:12:14;12.50;1.00
11894;DHT22;6006;49.696;8.662;2024-03-29T12:14:44;12.50;99.90
11894;DHT22;6006;49.696;8.662;2024-03-29T12:17:11;12.40;99.90
11894;DHT22;6006;49.696;8.662;2024-03-29T12:20:08;12.60;99.90
11894;DHT22;6006;49.696;8.662;2024-03-29T12:22:53;12.60;1.00
11894;DHT22;6006;49.696;8.662;2024-03-29T12:25:21;12.40;99.90
11894;DHT22;6006;49.696;8.662;2024-03-29T12:27:50;11.50;99.90
11894;DHT22;6006;49.696;8.662;2024-03-29T12:30:20;12.40;30.60
11894;DHT22;6006;49.696;8.662;2024-03-29T12:32:47;12.40;99.90
11894;DHT22;6006;49.696;8.662;2024-03-29T12:35:16;12.50;1.00
11894;DHT22;6006;49.696;8.662;2024-03-29T12:37:49;12.30;1.00
11894;DHT22;6006;49.696;8.662;2024-03-29T12:40:17;12.30;99.90
11894;DHT22;6006;49.696;8.662;2024-03-29T12:42:49;12.20;1.00
11894;DHT22;6006;49.696;8.662;2024-03-29T12:45:17;12.10;1.00
11894;DHT22;6006;49.696;8.662;2024-03-29T12:47:44;12.00;99.90
11894;DHT22;6006;49.696;8.662;2024-03-29T12:50:13;12.00;1.00
11894;DHT22;6006;49.696;8.662;2024-03-29T12:52:41;11.90;1.00
11894;DHT22;6006;49.696;8.662;2024-03-29T12:55:08;11.90;2.30
11894;DHT22;6006;49.696;8.662;2024-03-29T12:57:35;11.90;56.90
11894;DHT22;6006;49.696;8.662;2024-03-29T13:00:05;12.00;44.50
11894;DHT22;6006;49.696;8.662;2024-03-29T13:02:35;12.10;58.80
11894;DHT22;6006;49.696;8.662;2024-03-29T13:05:02;12.20;1.00
11894;DHT22;6006;49.696;8.662;2024-03-29T13:07:29;12.30;1.00
11894;DHT22;6006;49.696;8.662;2024-03-29T13:09:56;12.20;1.00
11894;DHT22;6006;49.696;8.662;2024-03-29T13:12:24;12.10;1.00
11894;DHT22;6006;49.696;8.662;2024-03-29T13:14:51;12.10;1.00
11894;DHT22;6006;49.696;8.662;2024-03-29T13:17:20;12.00;1.00
11894;DHT22;6006;49.696;8.662;2024-03-29T13:19:47;12.00;33.30
11894;DHT22;6006;49.696;8.662;2024-03-29T13:22:14;12.00;1.00
11894;DHT22;6006;49.696;8.662;2024-03-29T13:24:41;12.00;1.00
11894;DHT22;6006;49.696;8.662;2024-03-29T13:27:07;12.00;1.00
11894;DHT22;6006;49.696;8.662;2024-03-29T13:29:34;12.10;5.30
11894;DHT22;6006;49.696;8.662;2024-03-29T13:32:01;12.00;1.00
11894;DHT22;6006;49.696;8.662;2024-03-29T13:34:30;12.00;1.00
11894;DHT22;6006;49.696;8.662;2024-03-29T13:36:57;12.00;44.90
11894;DHT22;6006;49.696;8.662;2024-03-29T13:39:23;12.10;57.50
11894;DHT22;6006;49.696;8.662;2024-03-29T13:41:50;12.10;51.50
11894;DHT22;6006;49.696;8.662;2024-03-29T13:44:18;12.10;1.00
11894;DHT22;6006;49.696;8.662;2024-03-29T13:46:45;12.10;1.00
11894;DHT22;6006;49.696;8.662;2024-03-29T13:49:12;12.20;52.60
11894;DHT22;6006;49.696;8.662;2024-03-29T13:51:40;12.20;1.00
11894;DHT22;6006;49.696;8.662;2024-03-29T13:54:07;12.10;1.00
11894;DHT22;6006;49.696;8.662;2024-03-29T13:56:34;12.00;1.00
11894;DHT22;6006;49.696;8.662;2024-03-29T13:59:01;12.00;1.00
11894;DHT22;6006;49.696;8.662;2024-03-29T14:01:28;11.90;1.00
11894;DHT22;6006;49.696;8.662;2024-03-29T14:03:55;11.90;1.00
11894;DHT22;6006;49.696;8.662;2024-03-29T14:06:22;11.90;32.00
11894;DHT22;6006;49.696;8.662;2024-03-29T14:08:50;11.90;49.20
11894;DHT22;6006;49.696;8.662;2024-03-29T14:11:17;12.00;93.20
11894;DHT22;6006;49.696;8.662;2024-03-29T14:13:44;12.00;27.80
11894;DHT22;6006;49.696;8.662;2024-03-29T14:16:15;12.10;34.20
11894;DHT22;6006;49.696;8.662;2024-03-29T14:18:42;12.00;1.00
11894;DHT22;6006;49.696;8.662;2024-03-29T14:21:08;12.10;10.50
11894;DHT22;6006;49.696;8.662;2024-03-29T14:23:37;12.10;26.20
11894;DHT22;6006;49.696;8.662;2024-03-29T14:26:05;12.20;1.00
11894;DHT22;6006;49.696;8.662;2024-03-29T14:28:32;12.10;1.00
11894;DHT22;6006;49.696;8.662;2024-03-29T14:30:59;12.10;1.00
11894;DHT22;6006;49.696;8.662;2024-03-29T14:33:26;12.00;1.00
11894;DHT22;6006;49.696;8.662;2024-03-29T14:35:53;12.00;1.00
11894;DHT22;6006;49.696;8.662;2024-03-29T14:38:20;12.00;1.00
11894;DHT22;6006;49.696;8.662;2024-03-29T14:40:47;12.10;1.00
11894;DHT22;6006;49.696;8.662;2024-03-29T14:43:15;12.20;1.00
11894;DHT22;6006;49.696;8.662;2024-03-29T14:45:43;12.20;1.00
11894;DHT22;6006;49.696;8.662;2024-03-29T14:48:10;12.20;1.00
11894;DHT22;6006;49.696;8.662;2024-03-29T14:50:40;12.30;1.00
11894;DHT22;6006;49.696;8.662;2024-03-29T14:53:07;12.20;1.00
11894;DHT22;6006;49.696;8.662;2024-03-29T14:55:34;12.20;1.00
11894;DHT22;6006;49.696;8.662;2024-03-29T14:58:05;12.30;1.00
11894;DHT22;6006;49.696;8.662;2024-03-29T15:00:33;12.40;99.90
11894;DHT22;6006;49.696;8.662;2024-03-29T15:03:00;12.30;1.00
11894;DHT22;6006;49.696;8.662;2024-03-29T15:05:27;12.40;1.00
11894;DHT22;6006;49.696;8.662;2024-03-29T15:07:54;12.40;1.00
11894;DHT22;6006;49.696;8.662;2024-03-29T15:10:22;12.80;1.00
11894;DHT22;6006;49.696;8.662;2024-03-29T15:12:49;13.20;99.90
11894;DHT22;6006;49.696;8.662;2024-03-29T15:15:16;13.20;1.00
11894;DHT22;6006;49.696;8.662;2024-03-29T15:17:45;13.40;3.80
11894;DHT22;6006;49.696;8.662;2024-03-29T15:20:12;13.50;99.90
11894;DHT22;6006;49.696;8.662;2024-03-29T15:22:41;13.40;1.00
11894;DHT22;6006;49.696;8.662;2024-03-29T15:25:09;13.40;1.00
11894;DHT22;6006;49.696;8.662;2024-03-29T15:27:37;13.40;99.90
11894;DHT22;6006;49.696;8.662;2024-03-29T15:30:21;13.50;99.90
11894;DHT22;6006;49.696;8.662;2024-03-29T15:32:49;13.30;1.00
11894;DHT22;6006;49.696;8.662;2024-03-29T15:35:17;13.30;99.90
11894;DHT22;6006;49.696;8.662;2024-03-29T15:37:43;13.30;99.90
11894;DHT22;6006;49.696;8.662;2024-03-29T15:40:11;13.30;1.00
11894;DHT22;6006;49.696;8.662;2024-03-29T15:42:38;13.30;1.00
11894;DHT22;6006;49.696;8.662;2024-03-29T15:45:08;13.20;99.90
11894;DHT22;6006;49.696;8.662;2024-03-29T15:47:35;13.50;1.00
11894;DHT22;6006;49.696;8.662;2024-03-29T15:50:04;13.60;99.90
11894;DHT22;6006;49.696;8.662;2024-03-29T15:52:31;13.70;1.00
11894;DHT22;6006;49.696;8.662;2024-03-29T15:54:58;13.70;1.00
11894;DHT22;6006;49.696;8.662;2024-03-29T15:57:25;13.80;1.00
11894;DHT22;6006;49.696;8.662;2024-03-29T15:59:52;13.70;1.00